Time;durP1;ratioP1;P1;durP2;ratioP2;P2;SDS_P1;SDS_P2;PMS_P1;PMS_P2;Temp;Humidity;BMP_temperature;BMP_pressure;BME280_temperature;BME280_humidity;BME280_pressure;Samples;Min_cycle;Max_cycle;Signal;HPM_P1;HPM_P2
2021/09/06 00:00:30;;;;;;;10.73;5.90;;;16.00;99.90;;;;;;5037047;28;20483;-69
2021/09/06 00:02:57;;;;;;;10.30;5.53;;;16.00;99.90;;;;;;5033274;28;20548;-72
2021/09/06 00:05:24;;;;;;;12.73;7.43;;;15.90;99.90;;;;;;5030027;28;20474;-69
2021/09/06 00:07:52;;;;;;;10.50;6.23;;;15.90;99.90;;;;;;5040372;28;20892;-69
2021/09/06 00:10:37;;;;;;;13.47;5.87;;;15.80;99.90;;;;;;5040358;28;20502;-70
2021/09/06 00:13:06;;;;;;;9.33;5.00;;;15.80;99.90;;;;;;5042728;28;20962;-70
2021/09/06 00:15:33;;;;;;;8.77;6.00;;;15.80;99.90;;;;;;5043207;28;20537;-70
2021/09/06 00:18:00;;;;;;;11.20;5.27;;;15.70;99.90;;;;;;5043835;28;20558;-70
2021/09/06 00:20:28;;;;;;;11.17;6.37;;;15.70;99.90;;;;;;5045946;28;20499;-69
2021/09/06 00:22:56;;;;;;;13.07;7.83;;;15.60;99.90;;;;;;5047234;28;21047;-71
2021/09/06 00:25:23;;;;;;;10.00;6.73;;;15.60;99.90;;;;;;5036736;28;20531;-71
2021/09/06 00:27:51;;;;;;;13.70;6.33;;;15.60;99.90;;;;;;5048443;28;20447;-70
2021/09/06 00:30:18;;;;;;;17.30;9.20;;;15.60;99.90;;;;;;5039132;28;20529;-71
2021/09/06 00:32:45;;;;;;;12.10;6.90;;;15.60;99.90;;;;;;5040136;28;20542;-70
2021/09/06 00:35:12;;;;;;;12.83;6.17;;;15.60;99.90;;;;;;5041761;28;20879;-70
2021/09/06 00:37:39;;;;;;;11.70;6.30;;;15.50;99.90;;;;;;5037786;28;20527;-70
2021/09/06 00:40:09;;;;;;;13.80;8.33;;;15.50;99.90;;;;;;5039253;28;20576;-70
2021/09/06 00:42:36;;;;;;;12.03;6.90;;;15.50;99.90;;;;;;5045522;28;21003;-70
2021/09/06 00:45:05;;;;;;;9.93;6.53;;;15.40;99.90;;;;;;5043899;28;20539;-70
2021/09/06 00:47:34;;;;;;;11.47;6.57;;;15.30;99.90;;;;;;5040728;28;20456;-70
2021/09/06 00:50:02;;;;;;;11.20;5.67;;;15.30;99.90;;;;;;5043965;28;20653;-70
2021/09/06 00:52:30;;;;;;;12.30;5.90;;;15.20;99.90;;;;;;5051172;28;20433;-69
2021/09/06 00:54:57;;;;;;;12.00;7.03;;;15.20;99.90;;;;;;5035839;28;20445;-70
2021/09/06 00:57:26;;;;;;;11.73;6.80;;;15.20;99.90;;;;;;5035650;28;20534;-71
2021/09/06 00:59:53;;;;;;;14.23;7.53;;;15.20;99.90;;;;;;5043684;28;20502;-70
2021/09/06 01:02:20;;;;;;;9.87;4.70;;;15.10;99.90;;;;;;5037475;28;21184;-70
2021/09/06 01:04:46;;;;;;;13.67;7.40;;;15.10;99.90;;;;;;5028663;28;20610;-69
2021/09/06 01:07:13;;;;;;;15.67;7.30;;;15.10;99.90;;;;;;5050943;22;20507;-69
2021/09/06 01:09:41;;;;;;;11.50;6.13;;;15.10;99.90;;;;;;5048335;28;21005;-69
2021/09/06 01:12:08;;;;;;;12.17;6.17;;;15.10;99.90;;;;;;5042521;28;20530;-71
2021/09/06 01:14:36;;;;;;;10.73;6.07;;;15.10;99.90;;;;;;5040484;28;20466;-69
2021/09/06 01:17:04;;;;;;;15.77;7.60;;;15.00;99.90;;;;;;5045890;28;20578;-69
2021/09/06 01:19:30;;;;;;;11.23;6.13;;;14.90;99.90;;;;;;5040359;28;20450;-72
2021/09/06 01:21:57;;;;;;;11.00;7.03;;;14.80;99.90;;;;;;5047056;28;20444;-69
2021/09/06 01:24:25;;;;;;;11.93;6.40;;;14.80;99.90;;;;;;5047955;28;20451;-73
2021/09/06 01:26:53;;;;;;;13.33;7.43;;;14.80;99.90;;;;;;5049381;28;20554;-71
2021/09/06 01:29:21;;;;;;;9.73;5.93;;;14.80;99.90;;;;;;5035823;28;20535;-70
2021/09/06 01:31:47;;;;;;;12.43;7.37;;;14.70;99.90;;;;;;5042709;28;20577;-70
2021/09/06 01:34:14;;;;;;;10.00;7.67;;;14.70;99.90;;;;;;5036969;28;20954;-72
2021/09/06 01:36:41;;;;;;;15.70;8.10;;;14.60;99.90;;;;;;5042094;28;20618;-70
2021/09/06 01:39:08;;;;;;;15.87;5.10;;;14.60;99.90;;;;;;5055687;28;20546;-73
2021/09/06 01:41:36;;;;;;;12.60;6.57;;;14.50;99.90;;;;;;5059871;28;20458;-67
2021/09/06 01:44:04;;;;;;;11.70;6.43;;;14.50;99.90;;;;;;5053249;28;20458;-69
2021/09/06 01:46:32;;;;;;;12.40;7.13;;;14.60;99.90;;;;;;5044111;28;20999;-71
2021/09/06 01:49:00;;;;;;;16.93;6.27;;;14.50;99.90;;;;;;5039747;28;20512;-71
2021/09/06 01:51:28;;;;;;;9.73;5.97;;;14.50;99.90;;;;;;5040270;28;20447;-73
2021/09/06 01:53:56;;;;;;;11.00;6.17;;;14.50;99.90;;;;;;5043228;28;20470;-69
2021/09/06 01:56:23;;;;;;;11.73;7.13;;;14.50;99.90;;;;;;5042331;28;20592;-70
2021/09/06 01:58:52;;;;;;;11.60;7.70;;;14.60;99.90;;;;;;5038074;28;20491;-74
2021/09/06 02:01:23;;;;;;;14.50;7.00;;;14.50;99.90;;;;;;5046156;28;20523;-69
2021/09/06 02:03:50;;;;;;;8.73;5.93;;;14.50;99.90;;;;;;5045135;28;20455;-70
2021/09/06 02:06:17;;;;;;;11.30;5.97;;;14.30;99.90;;;;;;5042298;28;20562;-71
2021/09/06 02:08:44;;;;;;;14.33;7.50;;;14.00;99.90;;;;;;5040626;28;20535;-72
2021/09/06 02:11:12;;;;;;;16.50;7.70;;;14.10;99.90;;;;;;5044715;28;21071;-70
2021/09/06 02:13:39;;;;;;;14.63;7.00;;;14.20;99.90;;;;;;5041239;28;21196;-72
2021/09/06 02:16:05;;;;;;;10.37;6.57;;;14.20;99.90;;;;;;5049344;28;20524;-70
2021/09/06 02:18:34;;;;;;;11.20;5.57;;;14.10;99.90;;;;;;5040293;28;20470;-71
2021/09/06 02:21:01;;;;;;;19.00;7.50;;;14.10;99.90;;;;;;5040676;28;20538;-70
2021/09/06 02:23:27;;;;;;;10.00;5.33;;;14.20;99.90;;;;;;5031044;28;20478;-68
2021/09/06 02:25:54;;;;;;;12.87;7.57;;;14.20;99.90;;;;;;5046585;28;20516;-73
2021/09/06 02:28:21;;;;;;;20.60;6.77;;;14.20;99.90;;;;;;5045614;28;20559;-69
2021/09/06 02:30:48;;;;;;;10.63;6.73;;;14.30;99.90;;;;;;5050845;28;20474;-72
2021/09/06 02:33:15;;;;;;;15.40;7.40;;;14.10;99.90;;;;;;5041835;28;20519;-70
2021/09/06 02:35:43;;;;;;;9.60;6.27;;;14.20;99.90;;;;;;5041907;28;21012;-71
2021/09/06 02:38:10;;;;;;;14.60;7.30;;;14.20;99.90;;;;;;5035393;28;20465;-69
2021/09/06 02:40:37;;;;;;;14.00;6.73;;;14.20;99.90;;;;;;5045682;28;20538;-71
2021/09/06 02:43:05;;;;;;;13.07;6.43;;;14.10;99.90;;;;;;5046879;28;20776;-69
2021/09/06 02:45:31;;;;;;;12.60;7.00;;;14.10;99.90;;;;;;5042434;28;20526;-71
2021/09/06 02:47:58;;;;;;;12.83;7.87;;;14.00;99.90;;;;;;5045545;28;20543;-68
2021/09/06 02:50:25;;;;;;;11.93;5.93;;;13.90;99.90;;;;;;5041157;28;20694;-69
2021/09/06 02:52:54;;;;;;;12.87;7.50;;;13.90;99.90;;;;;;5037313;28;20448;-69
2021/09/06 02:55:21;;;;;;;17.40;7.60;;;13.80;99.90;;;;;;5032899;28;20886;-70
2021/09/06 02:57:48;;;;;;;12.80;7.47;;;13.80;99.90;;;;;;5030551;28;20570;-69
2021/09/06 03:00:17;;;;;;;12.93;6.83;;;13.80;99.90;;;;;;5032580;28;20469;-68
2021/09/06 03:02:44;;;;;;;16.73;6.10;;;13.80;99.90;;;;;;5036485;28;20455;-69
2021/09/06 03:05:11;;;;;;;8.73;5.20;;;13.80;99.90;;;;;;5036685;28;20470;-69
2021/09/06 03:07:39;;;;;;;11.70;5.70;;;13.70;99.90;;;;;;5044298;28;20554;-68
2021/09/06 03:10:09;;;;;;;11.77;7.93;;;13.60;99.90;;;;;;5029108;28;20656;-70
2021/09/06 03:12:36;;;;;;;11.90;5.93;;;13.60;99.90;;;;;;5028897;28;20533;-68
2021/09/06 03:15:03;;;;;;;12.37;7.50;;;13.50;99.90;;;;;;5029195;28;20469;-69
2021/09/06 03:17:30;;;;;;;16.00;7.50;;;13.50;99.90;;;;;;5032867;28;20535;-69
2021/09/06 03:19:57;;;;;;;13.30;6.33;;;13.60;99.90;;;;;;5038414;28;21375;-69
2021/09/06 03:22:24;;;;;;;15.77;8.10;;;13.60;99.90;;;;;;5043819;28;20498;-70
2021/09/06 03:24:51;;;;;;;11.43;7.40;;;13.60;99.90;;;;;;5036517;28;20471;-69
2021/09/06 03:27:19;;;;;;;13.80;6.70;;;13.50;99.90;;;;;;5037075;28;20471;-69
2021/09/06 03:29:46;;;;;;;12.30;8.13;;;13.50;99.90;;;;;;5037277;28;20463;-70
2021/09/06 03:32:13;;;;;;;10.17;7.50;;;13.50;99.90;;;;;;5040105;28;20579;-70
2021/09/06 03:34:40;;;;;;;8.13;6.10;;;13.50;99.90;;;;;;5031810;28;20564;-69
2021/09/06 03:37:07;;;;;;;9.00;6.33;;;13.50;99.90;;;;;;5029728;28;20511;-70
2021/09/06 03:39:34;;;;;;;8.50;5.17;;;13.50;99.90;;;;;;5035272;28;20453;-69
2021/09/06 03:42:01;;;;;;;12.17;6.20;;;13.50;99.90;;;;;;5036297;28;20535;-70
2021/09/06 03:44:29;;;;;;;12.60;7.40;;;13.40;99.90;;;;;;5030387;28;20529;-68
2021/09/06 03:46:56;;;;;;;11.87;6.80;;;13.40;99.90;;;;;;5037763;28;20488;-71
2021/09/06 03:49:23;;;;;;;10.60;6.53;;;13.40;99.90;;;;;;5035219;28;20531;-69
2021/09/06 03:51:50;;;;;;;17.30;7.50;;;13.30;99.90;;;;;;5045162;28;21027;-72
2021/09/06 03:54:17;;;;;;;10.13;6.43;;;13.30;99.90;;;;;;5037034;28;20579;-68
2021/09/06 03:56:44;;;;;;;11.67;5.63;;;13.20;99.90;;;;;;5044253;28;21149;-69
2021/09/06 03:59:11;;;;;;;11.50;7.50;;;13.20;99.90;;;;;;5043212;28;20459;-69
2021/09/06 04:01:39;;;;;;;10.33;6.33;;;13.20;99.90;;;;;;5047130;28;20475;-68
2021/09/06 04:04:06;;;;;;;10.43;5.43;;;13.20;99.90;;;;;;5030394;28;20462;-69
2021/09/06 04:06:33;;;;;;;8.53;5.57;;;13.10;99.90;;;;;;5028503;28;20540;-69
2021/09/06 04:09:00;;;;;;;9.73;6.23;;;13.20;99.90;;;;;;5037387;28;20915;-69
2021/09/06 04:11:27;;;;;;;14.57;5.63;;;13.10;99.90;;;;;;5039903;28;20563;-69
2021/09/06 04:13:54;;;;;;;12.23;7.50;;;13.00;99.90;;;;;;5039624;28;20563;-73
2021/09/06 04:16:21;;;;;;;11.70;5.83;;;13.00;99.90;;;;;;5038786;28;20477;-69
2021/09/06 04:18:49;;;;;;;15.77;7.63;;;13.00;99.90;;;;;;5029107;28;20494;-69
2021/09/06 04:21:16;;;;;;;9.77;5.90;;;13.00;99.90;;;;;;5049484;28;20530;-71
2021/09/06 04:23:43;;;;;;;9.77;6.23;;;12.90;99.90;;;;;;5045378;28;20611;-68
2021/09/06 04:26:10;;;;;;;9.60;5.87;;;12.90;99.90;;;;;;5042127;28;20552;-69
2021/09/06 04:28:37;;;;;;;16.77;6.73;;;13.00;99.90;;;;;;5041081;28;20534;-69
2021/09/06 04:31:04;;;;;;;11.27;6.23;;;13.10;99.90;;;;;;5035662;28;20753;-67
2021/09/06 04:33:31;;;;;;;12.40;7.00;;;12.90;99.90;;;;;;5039889;28;20546;-68
2021/09/06 04:35:59;;;;;;;10.90;6.10;;;12.90;99.90;;;;;;5035726;28;20464;-68
2021/09/06 04:38:26;;;;;;;11.30;7.47;;;12.90;99.90;;;;;;5040168;28;20447;-71
2021/09/06 04:40:53;;;;;;;11.33;6.10;;;12.90;99.90;;;;;;5035029;28;20570;-69
2021/09/06 04:43:20;;;;;;;13.57;6.47;;;12.90;99.90;;;;;;5038277;28;20480;-69
2021/09/06 04:45:47;;;;;;;13.70;7.60;;;12.90;99.90;;;;;;5036863;28;20532;-69
2021/09/06 04:48:14;;;;;;;14.57;6.60;;;12.90;99.90;;;;;;5033131;28;20566;-70
2021/09/06 04:50:41;;;;;;;13.67;7.17;;;12.90;99.90;;;;;;5050829;28;20883;-69
2021/09/06 04:53:09;;;;;;;16.37;7.73;;;12.80;99.90;;;;;;5049341;28;20506;-69
2021/09/06 04:55:36;;;;;;;13.30;6.30;;;12.80;99.90;;;;;;5050891;28;20561;-70
2021/09/06 04:58:03;;;;;;;12.27;6.47;;;12.80;99.90;;;;;;5050507;28;20494;-69
2021/09/06 05:00:30;;;;;;;14.10;7.33;;;12.80;99.90;;;;;;5050837;28;20538;-68
2021/09/06 05:02:57;;;;;;;14.27;6.90;;;12.80;99.90;;;;;;5045765;28;20454;-70
2021/09/06 05:05:24;;;;;;;13.97;7.87;;;12.80;99.90;;;;;;5047006;28;20862;-68
2021/09/06 05:07:51;;;;;;;12.50;6.73;;;12.80;99.90;;;;;;5047625;28;20554;-68
2021/09/06 05:10:20;;;;;;;17.73;8.77;;;12.90;99.90;;;;;;5052462;28;20425;-68
2021/09/06 05:12:47;;;;;;;14.43;8.30;;;12.90;99.90;;;;;;5049696;28;20535;-70
2021/09/06 05:15:14;;;;;;;14.40;5.70;;;12.80;99.90;;;;;;5048758;28;20921;-68
2021/09/06 05:17:40;;;;;;;15.90;6.10;;;12.80;99.90;;;;;;5050019;28;20549;-69
2021/09/06 05:20:08;;;;;;;15.00;7.10;;;12.80;99.90;;;;;;5050298;28;20462;-70
2021/09/06 05:22:35;;;;;;;11.43;7.30;;;12.90;99.90;;;;;;5048871;28;20541;-71
2021/09/06 05:25:02;;;;;;;16.00;6.47;;;12.90;99.90;;;;;;5043695;28;20455;-69
2021/09/06 05:27:30;;;;;;;9.47;5.73;;;13.00;99.90;;;;;;5050283;28;20566;-68
2021/09/06 05:29:57;;;;;;;15.10;8.77;;;13.00;99.90;;;;;;5050197;28;20417;-69
2021/09/06 05:32:24;;;;;;;12.97;6.87;;;13.20;99.90;;;;;;5048850;28;20509;-69
2021/09/06 05:34:51;;;;;;;13.20;6.00;;;13.30;99.90;;;;;;5048565;28;20459;-69
2021/09/06 05:37:18;;;;;;;15.50;7.23;;;13.40;99.90;;;;;;5045001;28;20540;-70
2021/09/06 05:39:45;;;;;;;10.23;6.30;;;13.40;99.90;;;;;;5042037;28;20467;-69
2021/09/06 05:42:12;;;;;;;23.13;7.10;;;13.50;99.90;;;;;;5047143;28;20559;-69
2021/09/06 05:44:40;;;;;;;13.27;7.17;;;13.50;99.90;;;;;;5048519;28;20483;-69
2021/09/06 05:47:07;;;;;;;14.43;6.30;;;13.50;99.90;;;;;;5051246;28;20467;-69
2021/09/06 05:49:34;;;;;;;10.07;6.70;;;13.60;99.90;;;;;;5049901;28;20451;-69
2021/09/06 05:52:01;;;;;;;12.73;5.57;;;13.60;99.90;;;;;;5047891;28;20471;-69
2021/09/06 05:54:28;;;;;;;13.07;7.27;;;13.60;99.90;;;;;;5044015;28;20556;-69
2021/09/06 05:56:55;;;;;;;10.80;6.90;;;13.70;99.90;;;;;;5039921;28;20863;-68
2021/09/06 05:59:22;;;;;;;9.43;6.20;;;13.90;99.90;;;;;;5038658;28;20632;-71
2021/09/06 06:01:50;;;;;;;13.40;7.73;;;14.40;99.90;;;;;;5042656;28;20571;-69
2021/09/06 06:04:17;;;;;;;13.00;7.83;;;15.00;99.90;;;;;;5035118;28;20467;-69
2021/09/06 06:06:44;;;;;;;12.10;8.10;;;15.40;99.90;;;;;;5039198;28;20525;-70
2021/09/06 06:09:12;;;;;;;17.70;6.87;;;15.80;99.90;;;;;;5042251;28;20451;-68
2021/09/06 06:11:40;;;;;;;9.60;6.27;;;16.40;99.90;;;;;;5037515;28;20448;-69
2021/09/06 06:14:08;;;;;;;14.30;7.80;;;16.60;99.90;;;;;;5037239;28;20468;-70
2021/09/06 06:16:35;;;;;;;10.57;6.80;;;17.00;99.90;;;;;;5039313;28;20570;-69
2021/09/06 06:19:05;;;;;;;10.00;7.20;;;17.30;99.90;;;;;;5034873;28;20538;-69
2021/09/06 06:21:32;;;;;;;10.53;6.90;;;17.70;99.90;;;;;;5042121;28;20482;-69
2021/09/06 06:24:00;;;;;;;11.27;7.47;;;17.90;99.90;;;;;;5039561;28;20925;-69
2021/09/06 06:26:26;;;;;;;9.27;6.50;;;18.20;99.90;;;;;;5044752;28;21143;-69
2021/09/06 06:28:54;;;;;;;12.10;8.20;;;18.70;99.90;;;;;;5049440;28;20451;-70
2021/09/06 06:31:20;;;;;;;10.80;8.33;;;19.00;99.90;;;;;;5048627;28;20542;-68
2021/09/06 06:33:47;;;;;;;11.87;7.90;;;19.40;99.90;;;;;;5044830;28;20541;-73
2021/09/06 06:36:16;;;;;;;11.70;8.80;;;19.50;99.90;;;;;;5046941;28;20443;-69
2021/09/06 06:38:44;;;;;;;13.27;8.67;;;19.40;99.90;;;;;;5044511;28;20456;-71
2021/09/06 06:41:12;;;;;;;16.67;9.17;;;19.70;99.90;;;;;;5045309;28;20960;-69
2021/09/06 06:43:41;;;;;;;13.23;8.63;;;20.10;99.90;;;;;;5046554;28;20486;-69
2021/09/06 06:46:08;;;;;;;15.80;7.93;;;20.60;99.90;;;;;;5040020;28;20452;-68
2021/09/06 06:48:35;;;;;;;21.17;9.53;;;21.10;99.90;;;;;;5046791;28;20809;-68
2021/09/06 06:51:02;;;;;;;16.97;8.83;;;20.90;99.90;;;;;;5049965;28;20457;-69
2021/09/06 06:53:30;;;;;;;13.73;9.23;;;21.10;99.90;;;;;;5049753;28;20998;-68
2021/09/06 06:55:57;;;;;;;17.93;9.90;;;21.20;99.90;;;;;;5049138;28;20537;-69
2021/09/06 06:58:24;;;;;;;13.57;9.37;;;21.40;99.90;;;;;;5047805;28;20502;-69
2021/09/06 07:00:51;;;;;;;12.03;8.27;;;21.60;99.90;;;;;;5049637;28;20620;-69
2021/09/06 07:03:18;;;;;;;13.67;9.20;;;22.00;99.90;;;;;;5044645;28;20471;-69
2021/09/06 07:05:45;;;;;;;15.90;7.53;;;22.10;99.90;;;;;;5039565;28;20488;-69
2021/09/06 07:08:12;;;;;;;16.03;9.13;;;22.10;99.90;;;;;;5047546;28;20598;-68
2021/09/06 07:10:41;;;;;;;11.53;8.40;;;22.50;99.90;;;;;;5048185;28;20448;-68
2021/09/06 07:13:08;;;;;;;17.20;11.57;;;22.80;99.90;;;;;;5052199;28;20463;-68
2021/09/06 07:15:34;;;;;;;17.70;10.07;;;23.50;99.90;;;;;;5045060;28;20482;-68
2021/09/06 07:18:02;;;;;;;14.60;10.23;;;24.00;99.90;;;;;;5046713;28;20499;-68
2021/09/06 07:20:29;;;;;;;11.77;8.47;;;24.00;99.90;;;;;;5048746;28;20482;-68
2021/09/06 07:22:56;;;;;;;14.90;10.07;;;24.10;99.90;;;;;;5049785;28;20638;-70
2021/09/06 07:25:23;;;;;;;28.00;11.73;;;23.30;99.90;;;;;;5050303;28;20852;-68
2021/09/06 07:27:51;;;;;;;16.83;12.03;;;22.60;99.90;;;;;;5052023;28;20471;-69
2021/09/06 07:30:19;;;;;;;15.90;11.00;;;21.90;99.90;;;;;;5049695;28;20798;-70
2021/09/06 07:32:46;;;;;;;14.90;9.80;;;21.40;99.90;;;;;;5054708;28;20955;-69
2021/09/06 07:35:13;;;;;;;18.97;11.20;;;21.10;99.90;;;;;;5046935;28;20499;-71
2021/09/06 07:37:40;;;;;;;13.97;9.80;;;20.50;99.90;;;;;;5050829;28;20503;-69
2021/09/06 07:40:10;;;;;;;21.80;13.37;;;20.40;99.90;;;;;;5050707;28;20533;-69
2021/09/06 07:42:37;;;;;;;20.13;11.00;;;20.30;99.90;;;;;;5050934;28;20584;-68
2021/09/06 07:45:07;;;;;;;14.93;10.13;;;19.90;99.90;;;;;;5047319;28;20972;-68
2021/09/06 07:47:34;;;;;;;12.60;9.87;;;20.20;99.90;;;;;;5046509;28;20467;-68
2021/09/06 07:50:01;;;;;;;17.23;9.83;;;20.60;99.90;;;;;;5047233;28;20453;-68
2021/09/06 07:52:29;;;;;;;18.63;10.17;;;21.10;99.90;;;;;;5043949;28;20456;-68
2021/09/06 07:54:56;;;;;;;19.43;11.07;;;21.10;99.90;;;;;;5039594;28;20634;-68
2021/09/06 07:57:23;;;;;;;20.30;11.40;;;21.10;99.90;;;;;;5046732;28;21081;-68
2021/09/06 07:59:49;;;;;;;24.30;12.93;;;21.50;99.90;;;;;;5050973;28;20512;-69
2021/09/06 08:02:18;;;;;;;22.40;12.27;;;22.50;99.90;;;;;;5053799;28;20525;-68
2021/09/06 08:04:45;;;;;;;21.17;11.23;;;23.60;99.90;;;;;;5052700;28;20642;-68
2021/09/06 08:07:12;;;;;;;19.80;11.43;;;24.70;99.90;;;;;;5051961;28;20475;-69
2021/09/06 08:09:38;;;;;;;27.10;11.47;;;25.60;99.90;;;;;;5052856;28;20451;-69
2021/09/06 08:12:07;;;;;;;29.83;12.20;;;26.50;99.90;;;;;;5052116;28;20482;-68
2021/09/06 08:14:34;;;;;;;29.70;13.90;;;27.60;99.90;;;;;;5044497;28;20482;-69
2021/09/06 08:17:02;;;;;;;19.50;11.67;;;28.10;99.90;;;;;;5053652;28;20503;-68
2021/09/06 08:19:30;;;;;;;18.93;11.80;;;28.30;99.90;;;;;;5049383;28;20540;-72
2021/09/06 08:21:57;;;;;;;15.63;12.10;;;27.90;99.90;;;;;;5046034;28;20459;-69
2021/09/06 08:24:24;;;;;;;18.67;12.17;;;28.60;99.90;;;;;;5049545;28;20469;-70
2021/09/06 08:26:52;;;;;;;18.23;12.50;;;29.30;99.90;;;;;;5055601;28;20560;-70
2021/09/06 08:29:19;;;;;;;19.57;13.37;;;29.70;99.90;;;;;;5054887;28;20470;-69
2021/09/06 08:31:47;;;;;;;18.40;13.00;;;29.40;99.90;;;;;;5052749;28;20521;-72
2021/09/06 08:34:14;;;;;;;19.00;11.70;;;30.10;99.90;;;;;;5047235;28;20478;-68
2021/09/06 08:36:42;;;;;;;25.30;12.90;;;30.70;99.90;;;;;;5047006;28;20578;-70
2021/09/06 08:39:09;;;;;;;16.47;13.27;;;30.80;99.90;;;;;;5051620;28;20459;-69
2021/09/06 08:41:37;;;;;;;17.47;12.63;;;31.10;99.90;;;;;;5049975;28;20493;-70
2021/09/06 08:44:04;;;;;;;17.80;12.90;;;31.40;99.90;;;;;;5045467;28;20487;-69
2021/09/06 08:46:31;;;;;;;16.57;11.30;;;31.70;99.90;;;;;;5048082;28;20938;-70
2021/09/06 08:48:58;;;;;;;18.87;11.27;;;30.40;99.90;;;;;;5047998;28;20539;-68
2021/09/06 08:51:25;;;;;;;15.30;10.47;;;29.90;99.90;;;;;;5051264;28;20459;-69
2021/09/06 08:53:54;;;;;;;23.00;11.90;;;29.70;99.90;;;;;;5052410;28;20451;-68
2021/09/06 08:56:22;;;;;;;18.03;11.40;;;31.10;99.90;;;;;;5045622;28;20555;-70
2021/09/06 08:58:49;;;;;;;16.63;11.63;;;31.80;99.80;;;;;;5052350;28;20466;-68
2021/09/06 09:01:16;;;;;;;17.63;11.33;;;31.90;99.90;;;;;;5048693;28;20475;-73
2021/09/06 09:03:43;;;;;;;15.50;11.67;;;32.50;98.60;;;;;;5046542;28;20508;-71
2021/09/06 09:06:10;;;;;;;15.37;10.70;;;32.60;97.70;;;;;;5052747;28;21004;-68
2021/09/06 09:08:39;;;;;;;15.30;11.23;;;31.80;97.30;;;;;;5038977;28;20452;-69
2021/09/06 09:11:08;;;;;;;15.57;11.23;;;32.10;98.10;;;;;;5050547;28;20479;-70
2021/09/06 09:13:37;;;;;;;14.20;10.07;;;32.30;96.70;;;;;;5050231;28;20516;-70
2021/09/06 09:16:07;;;;;;;15.67;9.87;;;32.70;97.70;;;;;;5052914;28;20468;-69
2021/09/06 09:18:35;;;;;;;404.90;75.47;;;33.60;93.10;;;;;;5043391;28;20455;-72
2021/09/06 09:21:04;;;;;;;205.03;42.23;;;32.90;92.10;;;;;;5046417;28;20495;-69
2021/09/06 09:23:43;;;;;;;18.27;8.60;;;31.90;94.30;;;;;;5045379;28;20452;-69
2021/09/06 09:26:12;;;;;;;10.77;8.07;;;32.10;94.40;;;;;;5049190;28;20451;-73
2021/09/06 09:28:43;;;;;;;12.47;8.63;;;33.10;92.00;;;;;;5048401;28;20478;-70
2021/09/06 09:31:13;;;;;;;12.83;8.60;;;33.20;90.80;;;;;;5052681;28;20471;-69
2021/09/06 09:33:45;;;;;;;13.37;8.50;;;33.10;90.40;;;;;;5048396;28;20512;-70
2021/09/06 09:36:14;;;;;;;16.30;9.50;;;33.60;90.60;;;;;;5051710;28;20444;-68
2021/09/06 09:38:41;;;;;;;12.30;8.97;;;34.30;88.40;;;;;;5053055;28;20513;-69
2021/09/06 09:41:17;;;;;;;10.47;7.83;;;34.40;87.10;;;;;;5044133;28;20471;-68
2021/09/06 09:43:44;;;;;;;12.10;7.17;;;33.90;85.80;;;;;;5050081;28;20456;-69
2021/09/06 09:46:11;;;;;;;15.67;7.63;;;34.60;82.30;;;;;;5048684;28;20533;-69
2021/09/06 09:48:38;;;;;;;12.30;8.60;;;33.90;81.80;;;;;;5050700;28;20552;-70
2021/09/06 09:51:07;;;;;;;11.90;9.60;;;34.00;82.90;;;;;;5045914;28;20449;-69
2021/09/06 09:53:34;;;;;;;12.13;7.50;;;34.60;83.80;;;;;;5044742;28;20486;-70
2021/09/06 09:56:01;;;;;;;14.50;8.70;;;34.90;79.20;;;;;;5045112;28;20453;-69
2021/09/06 09:58:30;;;;;;;12.23;8.90;;;35.10;76.10;;;;;;5047001;28;20517;-69
2021/09/06 10:00:59;;;;;;;11.30;10.10;;;34.40;78.20;;;;;;5047654;28;20521;-70
2021/09/06 10:03:27;;;;;;;11.90;8.47;;;34.90;79.00;;;;;;5044071;28;20896;-71
2021/09/06 10:05:54;;;;;;;12.43;8.40;;;35.90;74.20;;;;;;5051974;28;20443;-68
2021/09/06 10:08:23;;;;;;;11.20;8.90;;;35.60;74.50;;;;;;5051316;28;20486;-69
2021/09/06 10:10:50;;;;;;;10.80;8.53;;;35.80;73.40;;;;;;5044720;28;20443;-69
2021/09/06 10:13:19;;;;;;;10.03;8.57;;;36.10;71.10;;;;;;5045662;28;21115;-68
2021/09/06 10:16:00;;;;;;;10.70;8.00;;;35.40;71.90;;;;;;5051202;28;21052;-70
2021/09/06 10:18:27;;;;;;;10.13;7.93;;;34.50;73.30;;;;;;5050561;28;20451;-69
2021/09/06 10:20:56;;;;;;;12.17;8.60;;;34.40;72.20;;;;;;5053553;28;21328;-69
2021/09/06 10:23:25;;;;;;;14.27;8.20;;;33.70;74.50;;;;;;5046335;28;20450;-72
2021/09/06 10:25:52;;;;;;;10.20;7.80;;;33.80;77.40;;;;;;5042934;28;20474;-70
2021/09/06 10:28:20;;;;;;;10.93;8.47;;;33.80;74.90;;;;;;5038196;28;20563;-72
2021/09/06 10:30:50;;;;;;;15.30;8.27;;;34.20;74.30;;;;;;5052650;28;20474;-69
2021/09/06 10:33:26;;;;;;;13.33;7.90;;;34.00;72.40;;;;;;5048827;28;20938;-71
2021/09/06 10:36:04;;;;;;;11.73;8.17;;;33.60;75.10;;;;;;5047881;28;20454;-69
2021/09/06 10:38:37;;;;;;;11.10;8.63;;;33.40;75.00;;;;;;5049925;28;20810;-69
2021/09/06 10:41:10;;;;;;;12.27;8.90;;;33.40;74.80;;;;;;5048543;28;20466;-69
2021/09/06 10:43:44;;;;;;;8.37;6.80;;;34.20;71.40;;;;;;5049212;28;20953;-69
2021/09/06 10:46:13;;;;;;;11.47;7.50;;;34.20;74.70;;;;;;5043053;28;20542;-69
2021/09/06 10:48:40;;;;;;;25.10;11.23;;;34.60;71.50;;;;;;5045005;28;20494;-68
2021/09/06 10:51:09;;;;;;;31.60;9.60;;;34.80;72.10;;;;;;5041329;28;20443;-68
2021/09/06 10:53:37;;;;;;;22.83;10.37;;;35.40;70.70;;;;;;5037257;28;20475;-69
2021/09/06 10:56:06;;;;;;;12.87;8.00;;;34.60;68.50;;;;;;5047399;28;20808;-68
2021/09/06 10:58:33;;;;;;;10.47;7.93;;;34.40;69.20;;;;;;5043876;28;20558;-68
2021/09/06 11:01:02;;;;;;;14.67;8.67;;;34.90;68.00;;;;;;5041253;28;20491;-67
2021/09/06 11:03:37;;;;;;;15.90;8.20;;;34.20;69.20;;;;;;5047385;28;20550;-69
2021/09/06 11:06:05;;;;;;;20.80;9.17;;;33.10;70.60;;;;;;5042937;28;20443;-70
2021/09/06 11:08:34;;;;;;;9.60;7.37;;;33.10;71.60;;;;;;5049738;28;21043;-68
2021/09/06 11:11:03;;;;;;;9.87;7.10;;;33.50;72.10;;;;;;5049653;28;20501;-69
2021/09/06 11:13:34;;;;;;;15.17;9.50;;;33.90;68.80;;;;;;5043811;28;20527;-68
2021/09/06 11:16:02;;;;;;;17.80;8.93;;;33.30;73.00;;;;;;5046557;28;20444;-68
2021/09/06 11:18:32;;;;;;;10.07;7.53;;;33.60;70.60;;;;;;5048126;28;20475;-71
2021/09/06 11:21:01;;;;;;;11.00;9.00;;;34.00;70.30;;;;;;5047308;28;20551;-68
2021/09/06 11:23:34;;;;;;;12.40;9.50;;;34.70;68.60;;;;;;5045736;28;20812;-70
2021/09/06 11:26:02;;;;;;;13.43;9.23;;;35.30;67.10;;;;;;5049011;28;20900;-69
2021/09/06 11:28:29;;;;;;;12.30;8.60;;;35.30;66.10;;;;;;5049866;28;20550;-70
2021/09/06 11:30:56;;;;;;;13.70;8.97;;;35.60;66.90;;;;;;5038992;28;21151;-69
2021/09/06 11:33:23;;;;;;;13.77;8.20;;;35.90;65.50;;;;;;5044819;28;20486;-69
2021/09/06 11:35:50;;;;;;;11.63;8.90;;;35.90;68.90;;;;;;5039176;28;20535;-70
2021/09/06 11:38:19;;;;;;;13.67;9.17;;;35.80;63.10;;;;;;5045524;28;20571;-71
2021/09/06 11:40:57;;;;;;;15.83;9.70;;;35.40;66.80;;;;;;5048519;28;20455;-70
2021/09/06 11:43:26;;;;;;;19.47;8.10;;;35.50;64.70;;;;;;5048309;28;20467;-69
2021/09/06 11:46:00;;;;;;;15.00;9.97;;;35.00;63.90;;;;;;5043155;28;20469;-71
2021/09/06 11:48:27;;;;;;;13.90;9.50;;;35.10;65.50;;;;;;5044275;28;20546;-71
2021/09/06 11:50:54;;;;;;;14.57;10.17;;;35.60;67.80;;;;;;5038462;28;20466;-70
2021/09/06 11:53:23;;;;;;;74.27;19.50;;;36.40;63.10;;;;;;5039712;28;20557;-71
2021/09/06 11:55:52;;;;;;;128.83;18.47;;;36.10;63.50;;;;;;5044867;28;20551;-71
2021/09/06 11:58:23;;;;;;;16.10;9.70;;;36.30;63.70;;;;;;5041254;28;21053;-68
2021/09/06 12:00:50;;;;;;;40.00;10.20;;;35.60;65.10;;;;;;5046575;28;20455;-71
2021/09/06 12:03:24;;;;;;;19.40;9.20;;;35.40;66.50;;;;;;5046181;28;20593;-68
2021/09/06 12:05:55;;;;;;;92.47;14.37;;;36.40;62.80;;;;;;5045352;28;20551;-68
2021/09/06 12:08:23;;;;;;;11.47;8.17;;;37.40;61.20;;;;;;5043894;28;20909;-69
2021/09/06 12:10:50;;;;;;;12.10;8.90;;;38.10;61.40;;;;;;5048110;28;20522;-69
2021/09/06 12:13:22;;;;;;;11.00;8.70;;;38.40;59.60;;;;;;5043461;28;20451;-68
2021/09/06 12:15:54;;;;;;;11.10;8.50;;;38.50;59.60;;;;;;5043591;28;20531;-68
2021/09/06 12:18:21;;;;;;;11.90;8.10;;;39.00;58.50;;;;;;5047266;28;20499;-70
2021/09/06 12:20:48;;;;;;;11.53;8.03;;;39.00;58.20;;;;;;5041237;28;20555;-68
2021/09/06 12:23:30;;;;;;;15.87;8.10;;;38.40;57.40;;;;;;5046218;28;20475;-69
2021/09/06 12:25:57;;;;;;;10.43;9.20;;;38.30;58.30;;;;;;5041098;28;20455;-68
2021/09/06 12:28:24;;;;;;;12.87;7.97;;;37.90;58.20;;;;;;5045425;28;20882;-69
2021/09/06 12:30:58;;;;;;;12.47;8.00;;;37.10;59.10;;;;;;5043025;28;20483;-69
2021/09/06 12:33:25;;;;;;;9.97;7.67;;;36.90;59.70;;;;;;5041486;28;20487;-69
2021/09/06 12:35:52;;;;;;;16.13;8.60;;;36.60;58.90;;;;;;5046769;28;20455;-68
2021/09/06 12:38:19;;;;;;;9.17;7.60;;;37.20;58.30;;;;;;5048298;28;20503;-70